This is the latest recevied weather packets stored in our database for station/object DG3RAP-11. If no packets are shown the sender has not sent any weather packets the latest 10 day(s).
| Time | Temp. | Humidity | Pressure | Rain* | Wind** | Luminosity | Snow |
|---|---|---|---|---|---|---|---|
| 1777445643 | 10.56° C | 43% | 1021.5 hPa | 0 mm | - | - | - |
| 1777444563 | 9.44° C | 46% | 1021.4 hPa | 0 mm | - | - | - |
| 1777444023 | 9.44° C | 47% | 1021.3 hPa | 0 mm | - | - | - |
| 1777443483 | 8.33° C | 49% | 1021.3 hPa | 0 mm | - | - | - |
| 1777442943 | 8.33° C | 51% | 1021.4 hPa | 0 mm | - | - | - |
| 1777442403 | 8.33° C | 50% | 1021.4 hPa | 0 mm | - | - | - |
| 1777442043 | 7.78° C | 51% | 1021.1 hPa | 0 mm | - | - | - |
| 1777441503 | 7.78° C | 52% | 1021.2 hPa | 0 mm | - | - | - |
| 1777440963 | 7.22° C | 52% | 1021.1 hPa | 0 mm | - | - | - |
| 1777440423 | 6.67° C | 53% | 1021.1 hPa | 0 mm | - | - | - |
| 1777439883 | 6.67° C | 53% | 1020.9 hPa | 0 mm | - | - | - |
| 1777439343 | 6.67° C | 54% | 1020.8 hPa | 0 mm | - | - | - |
| 1777438803 | 6.11° C | 55% | 1020.8 hPa | 0 mm | - | - | - |
| 1777438443 | 6.11° C | 55% | 1020.9 hPa | 0 mm | - | - | - |
| 1777437363 | 5.56° C | 57% | 1020.7 hPa | 0 mm | - | - | - |
| 1777436823 | 5.56° C | 57% | 1020.5 hPa | 0 mm | - | - | - |
| 1777436283 | 5.56° C | 57% | 1020.3 hPa | 0 mm | - | - | - |
| 1777435743 | 5.56° C | 57% | 1020.6 hPa | 0 mm | - | - | - |
| 1777434843 | 5.56° C | 56% | 1020.2 hPa | 0 mm | - | - | - |
| 1777433223 | 6.11° C | 57% | 1020 hPa | 0 mm | - | - | - |
| 1777432683 | 6.11° C | 57% | 1019.9 hPa | 0 mm | - | - | - |
| 1777432144 | 6.11° C | 56% | 1020.1 hPa | 0 mm | - | - | - |
| 1777428543 | 7.22° C | 57% | 1019.7 hPa | 0 mm | - | - | - |
| 1777426023 | 7.78° C | 56% | 1019.6 hPa | 0 mm | - | - | - |
| 1777421883 | 8.89° C | 54% | 1019.5 hPa | 0 mm | - | - | - |
* Rain latest hour (hover to see other rain measurements)
** Current wind speed in m/s (hover to see current wind gust speed)